Time;durP1;ratioP1;P1;durP2;ratioP2;P2;SDS_P1;SDS_P2;PMS_P1;PMS_P2;Temp;Humidity;BMP_temperature;BMP_pressure;BME280_temperature;BME280_humidity;BME280_pressure;Samples;Min_cycle;Max_cycle;Signal;HPM_P1;HPM_P2
2023/12/04 00:01:45;;;;;;;3.05;2.95;;;;;;;-1.25;100.00;100415.19;6075938;23;20093;-74
2023/12/04 00:04:12;;;;;;;3.88;3.70;;;;;;;-0.61;100.00;100501.34;6062774;23;20030;-73
2023/12/04 00:06:41;;;;;;;4.18;3.92;;;;;;;-0.85;100.00;100469.78;6069149;23;20028;-74
2023/12/04 00:09:08;;;;;;;3.97;3.67;;;;;;;-0.61;100.00;100460.94;6059028;23;20026;-75
2023/12/04 00:11:35;;;;;;;3.47;3.25;;;;;;;-0.82;100.00;100410.50;6058770;23;20497;-74
2023/12/04 00:14:01;;;;;;;4.05;3.75;;;;;;;-0.62;100.00;100412.03;6069420;23;20072;-74
2023/12/04 00:16:28;;;;;;;4.88;4.55;;;;;;;-0.95;100.00;100353.97;6061530;23;20026;-74
2023/12/04 00:18:55;;;;;;;3.88;3.67;;;;;;;-0.89;100.00;100343.59;6058990;23;20587;-74
2023/12/04 00:21:21;;;;;;;4.03;3.55;;;;;;;-1.72;100.00;100211.44;6039127;23;20050;-73
2023/12/04 00:23:48;;;;;;;3.00;2.90;;;;;;;-1.74;100.00;100187.47;6059572;23;20524;-74
2023/12/04 00:26:15;;;;;;;3.50;3.00;;;;;;;-0.74;100.00;100361.47;6059946;23;20057;-74
2023/12/04 00:28:42;;;;;;;4.80;4.60;;;;;;;-1.31;100.00;100264.22;6055043;23;20708;-74
2023/12/04 00:31:08;;;;;;;4.30;4.00;;;;;;;-0.74;100.00;100340.84;6036876;23;20034;-74
2023/12/04 00:33:35;;;;;;;5.80;4.25;;;;;;;-0.69;100.00;100307.28;6067609;23;20037;-74
2023/12/04 00:36:02;;;;;;;3.10;2.90;;;;;;;-0.90;100.00;100262.91;6034161;23;20018;-73
2023/12/04 00:38:28;;;;;;;3.63;3.47;;;;;;;-1.65;100.00;100135.91;6065347;23;20496;-73
2023/12/04 00:40:55;;;;;;;2.97;2.65;;;;;;;-1.70;100.00;100136.84;6032186;23;20034;-72
2023/12/04 00:43:22;;;;;;;3.22;3.03;;;;;;;-1.46;100.00;100167.44;6073862;23;20038;-73
2023/12/04 00:45:48;;;;;;;4.22;3.92;;;;;;;-1.65;100.00;100135.91;6056777;23;20101;-72
2023/12/04 00:48:14;;;;;;;4.97;4.57;;;;;;;-0.81;100.00;100262.78;6064347;23;20085;-73
2023/12/04 00:50:41;;;;;;;5.20;4.90;;;;;;;-0.99;100.00;100232.09;6057347;23;20038;-72
2023/12/04 00:53:07;;;;;;;3.22;2.90;;;;;;;-1.64;100.00;100140.19;6057488;23;20035;-75
2023/12/04 00:55:34;;;;;;;6.22;4.47;;;;;;;-0.82;100.00;100265.38;6060286;23;20022;-74
2023/12/04 00:58:01;;;;;;;3.47;3.20;;;;;;;-0.94;100.00;100188.25;6070074;23;20021;-74
2023/12/04 01:00:28;;;;;;;3.50;3.33;;;;;;;-1.48;100.00;100067.97;6055788;23;20046;-74
2023/12/04 01:02:55;;;;;;;5.68;3.97;;;;;;;-0.74;100.00;100180.25;6072601;23;20022;-74
2023/12/04 01:05:21;;;;;;;5.18;2.92;;;;;;;-0.78;100.00;100147.66;6057778;23;20543;-72
2023/12/04 01:07:48;;;;;;;3.05;2.88;;;;;;;-1.31;100.00;100086.59;6066925;23;20085;-73
2023/12/04 01:10:14;;;;;;;2.67;2.58;;;;;;;-1.67;100.00;100042.44;6062410;23;20042;-73
2023/12/04 01:12:41;;;;;;;5.60;5.07;;;;;;;-0.85;100.00;100170.94;6059515;23;20194;-72
2023/12/04 01:15:09;;;;;;;3.23;2.93;;;;;;;-1.07;100.00;100128.34;6061952;23;20030;-73
2023/12/04 01:17:35;;;;;;;6.32;3.85;;;;;;;-1.31;100.00;100112.34;6064872;23;20108;-74
2023/12/04 01:20:02;;;;;;;2.97;2.85;;;;;;;-0.94;100.00;100159.91;6060182;23;20020;-73
2023/12/04 01:22:29;;;;;;;3.75;3.55;;;;;;;-1.01;100.00;100148.84;6070288;23;20022;-74
2023/12/04 01:24:55;;;;;;;4.10;3.83;;;;;;;-1.02;100.00;100137.72;6050288;23;20026;-74
2023/12/04 01:27:22;;;;;;;3.63;3.33;;;;;;;-1.23;100.00;100100.22;6070342;23;20040;-74
2023/12/04 01:29:48;;;;;;;2.60;2.50;;;;;;;-1.61;100.00;100047.53;6051561;23;20086;-73
2023/12/04 01:32:15;;;;;;;4.38;3.88;;;;;;;-2.01;100.00;99949.47;6062287;23;20652;-73
2023/12/04 01:35:12;;;;;;;15.63;14.80;;;;;;;-0.85;100.00;100131.47;6030749;23;20428;-73
2023/12/04 01:37:45;;;;;;;3.85;3.65;;;;;;;-1.72;100.00;99982.50;6038671;23;20009;-76
2023/12/04 01:40:12;;;;;;;2.58;2.47;;;;;;;-1.03;100.00;100078.50;6056661;23;20022;-74
2023/12/04 01:42:39;;;;;;;4.88;4.57;;;;;;;-1.65;100.00;99975.56;6057847;23;20428;-73
2023/12/04 01:45:06;;;;;;;4.40;4.00;;;;;;;-0.89;100.00;100060.25;6063487;23;20089;-73
2023/12/04 01:47:32;;;;;;;5.35;4.85;;;;;;;-1.10;100.00;100022.78;6060635;23;20037;-74
2023/12/04 01:49:59;;;;;;;4.45;4.15;;;;;;;-2.05;100.00;99866.38;6060533;23;20018;-73
2023/12/04 01:52:26;;;;;;;6.15;3.80;;;;;;;-1.79;100.00;99880.56;6070005;23;20041;-73
2023/12/04 01:54:53;;;;;;;2.60;2.50;;;;;;;-1.42;100.00;99939.22;6065162;23;20033;-74
2023/12/04 01:57:19;;;;;;;2.90;2.80;;;;;;;-1.05;100.00;100005.56;6071744;23;20037;-73
2023/12/04 01:59:47;;;;;;;4.35;4.05;;;;;;;-1.52;100.00;99922.22;6055195;23;20045;-74
2023/12/04 02:02:13;;;;;;;3.17;3.08;;;;;;;-1.30;100.00;99977.63;6044966;23;20046;-74
2023/12/04 02:04:40;;;;;;;4.25;4.05;;;;;;;-2.10;100.00;99834.75;6055204;23;20294;-74
2023/12/04 02:07:09;;;;;;;3.75;3.55;;;;;;;-1.15;100.00;99976.53;6064803;23;20045;-75
2023/12/04 02:09:35;;;;;;;3.95;3.65;;;;;;;-0.81;100.00;100018.03;6064261;23;20574;-74
2023/12/04 02:12:02;;;;;;;4.97;3.50;;;;;;;-0.74;100.00;100023.06;6060822;23;20033;-73
2023/12/04 02:14:29;;;;;;;4.93;4.53;;;;;;;-0.79;100.00;100009.44;6060870;23;20358;-73
2023/12/04 02:16:58;;;;;;;2.97;2.88;;;;;;;-0.92;100.00;99991.63;6056585;23;20030;-73
2023/12/04 02:19:24;;;;;;;3.35;3.15;;;;;;;-0.78;100.00;100001.69;6072131;23;20037;-74
2023/12/04 02:21:51;;;;;;;4.65;3.55;;;;;;;-0.94;100.00;99990.78;6058702;23;20107;-73
2023/12/04 02:24:18;;;;;;;3.17;3.08;;;;;;;-0.78;100.00;100034.31;6062499;23;20022;-74
2023/12/04 02:26:50;;;;;;;4.13;3.83;;;;;;;-0.81;100.00;100009.47;6065786;23;20091;-73
2023/12/04 02:29:23;;;;;;;3.97;3.70;;;;;;;-1.81;100.00;99839.44;6053747;23;20018;-73
2023/12/04 02:31:51;;;;;;;3.35;3.15;;;;;;;-2.66;100.00;99667.69;6072307;23;20504;-73
2023/12/04 02:34:18;;;;;;;2.70;2.60;;;;;;;-1.47;100.00;99853.50;6068021;23;20006;-74
2023/12/04 02:36:46;;;;;;;4.65;4.45;;;;;;;-1.99;100.00;99769.47;6062305;23;20444;-73
2023/12/04 02:39:13;;;;;;;2.53;2.42;;;;;;;-1.08;100.00;99942.09;6068114;23;20053;-73
2023/12/04 02:41:39;;;;;;;3.75;3.55;;;;;;;-0.86;100.00;99960.59;6064809;23;20435;-74
2023/12/04 02:44:06;;;;;;;2.70;2.60;;;;;;;-2.00;100.00;99771.19;6064124;23;20669;-74
2023/12/04 02:46:32;;;;;;;5.57;5.07;;;;;;;-1.02;100.00;99925.69;6071507;23;20046;-74
2023/12/04 02:48:59;;;;;;;2.78;2.67;;;;;;;-1.69;100.00;99810.09;6044451;23;20070;-73
2023/12/04 02:51:26;;;;;;;2.70;2.60;;;;;;;-1.20;100.00;99885.66;6061782;23;20037;-73
2023/12/04 02:53:53;;;;;;;3.45;3.25;;;;;;;-0.96;100.00;99927.28;6065652;23;20022;-73
2023/12/04 02:56:19;;;;;;;4.82;3.35;;;;;;;-1.04;100.00;99909.41;6061756;23;20624;-73
2023/12/04 02:58:46;;;;;;;4.90;3.20;;;;;;;-1.54;100.00;99796.16;6063467;23;20824;-73
2023/12/04 03:01:12;;;;;;;3.15;3.05;;;;;;;-0.86;100.00;99924.53;6056856;23;20021;-73
2023/12/04 03:03:38;;;;;;;3.13;3.03;;;;;;;-0.87;100.00;99909.09;6071997;23;20903;-74
2023/12/04 03:06:05;;;;;;;2.50;2.40;;;;;;;-0.86;100.00;99903.09;6055977;23;20079;-73
2023/12/04 03:08:32;;;;;;;4.88;4.50;;;;;;;-1.19;100.00;99853.03;6067792;23;20025;-74
2023/12/04 03:10:58;;;;;;;3.75;3.47;;;;;;;-1.42;100.00;99837.13;6067745;23;20452;-73
2023/12/04 03:13:25;;;;;;;2.63;2.53;;;;;;;-1.59;100.00;99813.38;6063708;23;20060;-74
2023/12/04 03:15:51;;;;;;;3.17;2.97;;;;;;;-1.28;100.00;99852.31;6062196;23;20030;-73
2023/12/04 03:18:18;;;;;;;3.10;3.00;;;;;;;-1.48;100.00;99818.38;6055605;23;20018;-73
2023/12/04 03:20:44;;;;;;;4.97;4.68;;;;;;;-1.15;100.00;99859.81;6062969;23;20113;-73
2023/12/04 03:23:11;;;;;;;2.80;2.70;;;;;;;-1.15;100.00;99855.53;6055131;23;20020;-73
2023/12/04 03:25:37;;;;;;;2.83;2.72;;;;;;;-1.42;100.00;99806.22;6069721;23;20030;-74
2023/12/04 03:28:03;;;;;;;2.63;2.53;;;;;;;-1.11;100.00;99854.59;6061371;23;20472;-74
2023/12/04 03:30:30;;;;;;;4.75;4.45;;;;;;;-0.89;100.00;99872.22;6032663;23;20542;-74
2023/12/04 03:32:56;;;;;;;3.47;3.13;;;;;;;-1.62;100.00;99723.41;6058785;23;20461;-75
2023/12/04 03:35:23;;;;;;;2.70;2.53;;;;;;;-3.15;100.00;99493.03;6055194;23;20369;-74
2023/12/04 03:37:49;;;;;;;4.88;4.47;;;;;;;-1.59;100.00;99682.19;6039099;23;20046;-74
2023/12/04 03:40:16;;;;;;;3.40;3.17;;;;;;;-2.08;100.00;99593.09;6066418;23;20060;-73
2023/12/04 03:42:43;;;;;;;5.20;4.68;;;;;;;-1.15;100.00;99728.53;6060300;23;20064;-74
2023/12/04 03:45:10;;;;;;;3.45;3.25;;;;;;;-1.38;100.00;99662.03;6070643;23;20036;-74
2023/12/04 03:47:36;;;;;;;2.78;2.67;;;;;;;-1.13;100.00;99698.44;6054499;23;20033;-75
2023/12/04 03:50:03;;;;;;;3.40;3.10;;;;;;;-1.62;100.00;99603.34;6068449;23;20026;-74
2023/12/04 03:52:29;;;;;;;4.22;4.03;;;;;;;-1.56;100.00;99604.09;6060189;23;20715;-74
2023/12/04 03:54:56;;;;;;;6.93;2.97;;;;;;;-1.58;100.00;99603.25;6028041;23;20023;-73
2023/12/04 03:57:23;;;;;;;4.13;3.83;;;;;;;-1.64;100.00;99599.13;6067184;23;20014;-73
2023/12/04 03:59:49;;;;;;;3.58;3.35;;;;;;;-2.16;100.00;99543.56;6060061;23;20235;-73
2023/12/04 04:02:15;;;;;;;3.38;3.17;;;;;;;-1.25;100.00;99684.94;6065699;23;20083;-73
2023/12/04 04:04:42;;;;;;;4.82;4.57;;;;;;;-1.23;100.00;99685.75;6057401;23;20046;-73
2023/12/04 04:07:09;;;;;;;2.63;2.53;;;;;;;-1.03;100.00;99698.22;6063649;23;20018;-74
2023/12/04 04:09:35;;;;;;;3.80;3.22;;;;;;;-1.81;100.00;99581.44;6059983;23;20851;-73
2023/12/04 04:12:02;;;;;;;4.82;3.17;;;;;;;-0.99;100.00;99705.91;6056673;23;20089;-73
2023/12/04 04:14:29;;;;;;;3.60;3.45;;;;;;;-1.37;100.00;99617.44;6056679;23;20026;-73
2023/12/04 04:16:55;;;;;;;4.35;4.05;;;;;;;-1.32;100.00;99597.56;6064893;23;20025;-73
2023/12/04 04:19:22;;;;;;;3.30;3.10;;;;;;;-2.25;100.00;99440.03;6037503;23;20085;-73
2023/12/04 04:21:48;;;;;;;4.25;3.95;;;;;;;-0.96;100.00;99654.31;6071529;23;20030;-73
2023/12/04 04:24:15;;;;;;;2.45;2.33;;;;;;;-0.94;100.00;99645.69;6032463;23;20033;-73
2023/12/04 04:26:41;;;;;;;4.00;3.80;;;;;;;-0.91;100.00;99643.03;6067503;23;20036;-73
2023/12/04 04:29:09;;;;;;;3.20;3.00;;;;;;;-0.87;100.00;99701.31;6053466;23;20101;-73
2023/12/04 04:31:36;;;;;;;2.58;2.47;;;;;;;-1.74;100.00;99541.88;6067907;23;20563;-73
2023/12/04 04:34:02;;;;;;;2.45;2.35;;;;;;;-0.87;100.00;99678.13;6064445;23;20042;-73
2023/12/04 04:36:29;;;;;;;4.25;3.95;;;;;;;-2.31;100.00;99447.88;6061236;23;20573;-73
2023/12/04 04:38:56;;;;;;;3.40;3.20;;;;;;;-0.91;100.00;99683.41;6071092;23;20042;-73
2023/12/04 04:41:23;;;;;;;4.38;3.42;;;;;;;-1.51;100.00;99576.53;6042285;23;20093;-74
2023/12/04 04:43:49;;;;;;;2.92;2.83;;;;;;;-1.07;100.00;99633.94;6028567;23;20026;-73
2023/12/04 04:46:15;;;;;;;4.75;4.35;;;;;;;-1.46;100.00;99592.75;6070789;23;20018;-73
2023/12/04 04:48:42;;;;;;;5.03;4.72;;;;;;;-2.35;100.00;99495.06;6052212;23;20712;-73
2023/12/04 04:51:08;;;;;;;2.80;2.70;;;;;;;-1.26;100.00;99669.53;6068746;23;20101;-73
2023/12/04 04:53:35;;;;;;;3.47;3.28;;;;;;;-0.92;100.00;99720.31;6060019;23;20022;-74
2023/12/04 04:56:02;;;;;;;3.05;2.85;;;;;;;-2.83;100.00;99397.50;6065156;23;20042;-74
2023/12/04 04:58:28;;;;;;;4.40;3.95;;;;;;;-1.68;100.00;99585.47;6058556;23;20464;-73
2023/12/04 05:00:55;;;;;;;3.92;3.60;;;;;;;-1.02;100.00;99693.94;6056846;23;20391;-75
2023/12/04 05:03:22;;;;;;;5.55;2.75;;;;;;;-1.42;100.00;99628.66;6071547;23;20014;-73
2023/12/04 05:05:50;;;;;;;2.88;2.78;;;;;;;-1.49;100.00;99628.81;6058145;23;20026;-73
2023/12/04 05:08:17;;;;;;;2.75;2.55;;;;;;;-1.15;100.00;99666.75;6068222;23;20050;-74
2023/12/04 05:10:44;;;;;;;4.30;4.10;;;;;;;-1.16;100.00;99659.88;6054215;23;20059;-73
2023/12/04 05:13:10;;;;;;;4.40;4.10;;;;;;;-1.19;100.00;99667.69;6067188;23;20052;-73
2023/12/04 05:15:37;;;;;;;2.85;2.75;;;;;;;-1.32;100.00;99659.34;6059141;23;20089;-73
2023/12/04 05:18:03;;;;;;;4.00;3.80;;;;;;;-1.21;100.00;99701.16;6038802;23;20045;-74
2023/12/04 05:20:30;;;;;;;5.32;5.03;;;;;;;-1.64;100.00;99615.41;6038365;23;20034;-75
2023/12/04 05:22:57;;;;;;;3.08;2.97;;;;;;;-1.47;100.00;99621.91;6055355;23;20044;-72
2023/12/04 05:25:23;;;;;;;2.70;2.60;;;;;;;-1.24;100.00;99722.69;6063477;23;20101;-73
2023/12/04 05:27:57;;;;;;;4.60;4.35;;;;;;;-1.46;100.00;99670.78;6065173;23;20363;-73
2023/12/04 05:30:23;;;;;;;4.95;3.72;;;;;;;-1.83;100.00;99643.16;6058654;23;20037;-73
2023/12/04 05:32:49;;;;;;;4.00;3.72;;;;;;;-1.71;100.00;99652.38;6066584;23;20010;-73
2023/12/04 05:35:17;;;;;;;3.85;3.65;;;;;;;-1.19;100.00;99750.06;6060867;23;20064;-73
2023/12/04 05:37:45;;;;;;;5.90;3.42;;;;;;;-1.53;100.00;99684.63;6069224;23;20030;-73
2023/12/04 05:40:11;;;;;;;3.35;3.15;;;;;;;-2.68;100.00;99487.13;6035812;23;20022;-73
2023/12/04 05:42:38;;;;;;;4.13;3.92;;;;;;;-0.97;100.00;99769.34;6062348;23;20097;-73
2023/12/04 05:45:05;;;;;;;3.83;3.60;;;;;;;-2.53;100.00;99581.00;6032250;23;20006;-73
2023/12/04 05:47:31;;;;;;;6.10;3.45;;;;;;;-0.90;100.00;99758.06;6065492;23;20030;-73
2023/12/04 05:49:58;;;;;;;4.03;3.72;;;;;;;-0.95;100.00;99754.72;6058923;23;20030;-72
2023/12/04 05:52:24;;;;;;;3.38;3.17;;;;;;;-1.14;100.00;99743.09;6067284;23;20030;-73
2023/12/04 05:54:51;;;;;;;3.88;2.90;;;;;;;-1.33;100.00;99698.84;6060598;23;20026;-73
2023/12/04 05:57:18;;;;;;;3.22;2.92;;;;;;;-2.21;100.00;99559.06;6071844;23;20045;-74
2023/12/04 05:59:44;;;;;;;2.78;2.67;;;;;;;-1.02;100.00;99750.59;6057295;23;20489;-73
2023/12/04 06:02:11;;;;;;;3.53;3.20;;;;;;;-0.88;100.00;99779.47;6062020;23;20029;-72
2023/12/04 06:04:37;;;;;;;9.38;5.85;;;;;;;-2.48;100.00;99496.19;6058834;23;20010;-72
2023/12/04 06:07:04;;;;;;;3.40;3.20;;;;;;;-1.47;100.00;99660.50;6066181;23;20085;-73
2023/12/04 06:09:30;;;;;;;4.90;4.50;;;;;;;-2.01;100.00;99572.38;6068748;23;20029;-73
2023/12/04 06:11:57;;;;;;;3.67;3.42;;;;;;;-1.34;100.00;99702.28;6018736;23;20029;-73
2023/12/04 06:14:23;;;;;;;6.60;3.92;;;;;;;-1.32;100.00;99683.38;6069840;23;20097;-75
2023/12/04 06:16:50;;;;;;;4.70;4.30;;;;;;;-1.57;100.00;99635.84;6065792;23;20022;-73
2023/12/04 06:19:16;;;;;;;5.05;3.90;;;;;;;-1.63;100.00;99616.22;6040426;23;20358;-74
2023/12/04 06:21:43;;;;;;;4.20;3.92;;;;;;;-2.77;100.00;99382.00;6062155;23;20038;-74
2023/12/04 06:24:10;;;;;;;3.72;3.53;;;;;;;-0.77;100.00;99721.75;6056391;23;20021;-75
2023/12/04 06:26:43;;;;;;;5.10;4.80;;;;;;;-0.79;100.00;99720.91;6064239;23;20030;-73
2023/12/04 06:29:10;;;;;;;3.00;2.88;;;;;;;-1.83;100.00;99581.44;6051041;23;20034;-73
2023/12/04 06:31:36;;;;;;;5.18;4.55;;;;;;;-1.62;100.00;99595.63;6055118;23;20033;-74
2023/12/04 06:34:03;;;;;;;5.78;3.58;;;;;;;-1.12;100.00;99687.25;6064693;23;20606;-73
2023/12/04 06:36:35;;;;;;;4.80;4.35;;;;;;;-1.26;100.00;99636.94;6029572;23;20038;-74
2023/12/04 06:39:04;;;;;;;6.75;3.60;;;;;;;-0.97;100.00;99689.53;6069993;23;20562;-73
2023/12/04 06:41:31;;;;;;;6.03;3.13;;;;;;;-1.17;100.00;99632.47;6062508;23;20038;-73
2023/12/04 06:43:57;;;;;;;4.72;4.43;;;;;;;-1.14;100.00;99630.66;6063849;23;20038;-72
2023/12/04 06:46:28;;;;;;;3.65;3.45;;;;;;;-0.82;100.00;99668.59;6066038;23;20034;-72
2023/12/04 06:48:59;;;;;;;3.90;3.70;;;;;;;-0.72;100.00;99660.63;6065038;23;20089;-72
2023/12/04 06:51:25;;;;;;;3.75;3.55;;;;;;;-1.15;100.00;99616.09;6035911;23;20307;-74
2023/12/04 06:53:52;;;;;;;3.35;3.20;;;;;;;-0.99;100.00;99603.72;6065518;23;20538;-73
2023/12/04 06:56:18;;;;;;;3.75;3.55;;;;;;;-1.39;100.00;99539.41;6064681;23;20050;-73
2023/12/04 06:58:46;;;;;;;4.05;3.80;;;;;;;-1.50;100.00;99534.53;6061211;23;20206;-73
2023/12/04 07:01:13;;;;;;;4.05;3.67;;;;;;;-0.76;100.00;99653.88;6063203;23;20029;-73
2023/12/04 07:03:39;;;;;;;4.22;4.03;;;;;;;-1.12;100.00;99572.28;6070884;23;20025;-73
2023/12/04 07:06:06;;;;;;;6.30;3.42;;;;;;;-0.97;100.00;99601.13;6060869;23;20843;-74
2023/12/04 07:08:33;;;;;;;6.85;6.07;;;;;;;-0.64;100.00;99625.28;6064605;23;20026;-73
2023/12/04 07:11:00;;;;;;;4.75;4.35;;;;;;;-0.83;100.00;99589.59;6056232;23;20022;-73
2023/12/04 07:13:27;;;;;;;7.50;4.07;;;;;;;-0.71;100.00;99623.72;6071706;23;20571;-73
2023/12/04 07:15:53;;;;;;;3.63;3.42;;;;;;;-1.14;100.00;99586.03;6061310;23;20033;-73
2023/12/04 07:18:22;;;;;;;4.53;3.58;;;;;;;-1.37;100.00;99556.50;6060692;23;20074;-73
2023/12/04 07:20:48;;;;;;;4.38;4.07;;;;;;;-2.18;100.00;99538.44;6057329;23;20042;-73
2023/12/04 07:23:15;;;;;;;3.20;3.10;;;;;;;-1.78;100.00;99521.38;6068464;23;20041;-73
2023/12/04 07:25:41;;;;;;;5.03;4.13;;;;;;;-0.67;100.00;99700.88;6043154;23;20081;-71
2023/12/04 07:28:08;;;;;;;4.28;3.88;;;;;;;-1.18;100.00;99623.91;6062737;23;20029;-71
2023/12/04 07:30:34;;;;;;;5.32;5.03;;;;;;;-1.35;100.00;99567.63;6050409;23;20029;-72
2023/12/04 07:33:01;;;;;;;2.90;2.80;;;;;;;-0.87;100.00;99625.78;6060039;23;20019;-71
2023/12/04 07:35:27;;;;;;;4.35;3.85;;;;;;;-0.92;100.00;99625.03;6057899;23;20421;-71
2023/12/04 07:37:54;;;;;;;3.55;3.35;;;;;;;-0.86;100.00;99630.91;6067222;23;20034;-71
2023/12/04 07:40:22;;;;;;;3.97;3.60;;;;;;;-1.96;100.00;99458.34;6042125;23;20677;-71
2023/12/04 07:42:49;;;;;;;3.80;3.40;;;;;;;-0.80;100.00;99596.44;6053503;23;20105;-71
2023/12/04 07:45:16;;;;;;;2.45;2.35;;;;;;;-0.58;100.00;99604.50;6064143;23;20042;-72
2023/12/04 07:47:42;;;;;;;3.90;3.08;;;;;;;-0.58;100.00;99589.03;6057679;23;20030;-72
2023/12/04 07:50:09;;;;;;;3.40;3.17;;;;;;;-1.06;100.00;99501.78;6060498;23;20565;-71
2023/12/04 07:52:36;;;;;;;6.50;6.00;;;;;;;-0.66;100.00;99544.56;6064013;23;20025;-71
2023/12/04 07:55:02;;;;;;;3.55;3.40;;;;;;;-1.16;100.00;99446.22;6064721;23;20049;-71
2023/12/04 07:57:29;;;;;;;5.57;4.80;;;;;;;-0.88;100.00;99500.44;6068524;23;20029;-71
2023/12/04 07:59:56;;;;;;;4.88;3.78;;;;;;;-1.13;100.00;99444.41;6024984;23;20766;-71
2023/12/04 08:02:22;;;;;;;3.65;3.45;;;;;;;-0.49;100.00;99514.06;6073018;23;20014;-71
2023/12/04 08:04:49;;;;;;;3.42;3.22;;;;;;;-0.69;99.48;99431.28;6054043;23;21246;-72
2023/12/04 08:07:15;;;;;;;4.28;3.97;;;;;;;-1.08;97.65;99318.16;6062454;23;20715;-71
2023/12/04 08:09:42;;;;;;;3.47;3.33;;;;;;;-0.88;95.46;99263.50;6031462;23;20034;-71
2023/12/04 08:12:08;;;;;;;6.22;3.53;;;;;;;-0.14;95.27;99385.94;6063180;23;20513;-71
2023/12/04 08:14:35;;;;;;;12.88;5.68;;;;;;;-0.24;94.91;99340.66;6059626;23;20589;-72
2023/12/04 08:17:01;;;;;;;2.70;2.60;;;;;;;-0.39;94.95;99323.09;6060283;23;20026;-72
2023/12/04 08:19:28;;;;;;;3.25;3.13;;;;;;;-0.37;95.21;99339.38;6060553;23;20033;-72
2023/12/04 08:21:55;;;;;;;4.20;3.95;;;;;;;-0.19;94.02;99343.13;6059452;23;20064;-72
2023/12/04 08:24:21;;;;;;;4.50;3.83;;;;;;;-0.21;94.38;99332.84;6070793;23;20032;-72
2023/12/04 08:26:50;;;;;;;3.00;2.90;;;;;;;-1.43;94.25;99158.66;6058287;23;20097;-73
2023/12/04 08:29:17;;;;;;;10.27;4.18;;;;;;;-0.91;94.40;99241.28;6053105;23;20016;-72
2023/12/04 08:31:44;;;;;;;3.30;3.10;;;;;;;-0.50;95.18;99323.41;6063791;23;20030;-72
2023/12/04 08:34:10;;;;;;;3.22;3.10;;;;;;;-0.30;94.78;99340.84;6057386;23;20018;-72
2023/12/04 08:36:36;;;;;;;5.45;5.05;;;;;;;-0.21;94.19;99348.31;6058657;23;20834;-72
2023/12/04 08:39:12;;;;;;;3.25;3.08;;;;;;;-0.10;93.48;99317.06;6060186;23;20522;-71
2023/12/04 08:41:39;;;;;;;3.22;3.00;;;;;;;-0.55;92.92;99233.34;6059479;23;20028;-72
2023/12/04 08:44:15;;;;;;;3.65;3.45;;;;;;;-0.02;92.40;99284.13;6062499;23;20033;-72
2023/12/04 08:46:44;;;;;;;11.07;7.43;;;;;;;-1.23;91.52;99062.84;6063228;23;20088;-72
2023/12/04 08:49:10;;;;;;;3.67;3.45;;;;;;;-0.47;91.33;99186.75;6058086;23;20346;-72
2023/12/04 08:51:37;;;;;;;5.60;4.60;;;;;;;-0.21;91.19;99188.50;6063504;23;20079;-72
2023/12/04 08:54:04;;;;;;;6.30;3.45;;;;;;;-0.44;90.66;99154.00;6058950;23;20036;-72
2023/12/04 08:56:44;;;;;;;4.50;4.20;;;;;;;-1.65;90.64;98942.34;6056871;23;20026;-72
2023/12/04 08:59:10;;;;;;;3.90;3.70;;;;;;;0.16;89.75;99220.78;6047688;23;20176;-72
2023/12/04 09:01:37;;;;;;;2.75;2.65;;;;;;;0.09;89.35;99167.75;6068561;23;20106;-72
2023/12/04 09:04:04;;;;;;;4.10;3.80;;;;;;;0.05;89.01;99150.69;6060401;23;20549;-72
2023/12/04 09:06:31;;;;;;;4.78;4.45;;;;;;;0.22;88.88;99187.06;6061370;23;20492;-72
2023/12/04 09:09:00;;;;;;;4.05;3.72;;;;;;;-0.55;88.31;99040.09;6026142;23;20601;-71
2023/12/04 09:11:39;;;;;;;3.50;3.20;;;;;;;-0.50;88.63;99051.13;6062780;23;20476;-71
2023/12/04 09:14:06;;;;;;;3.17;3.03;;;;;;;0.24;88.61;99197.31;6058595;23;20039;-72
2023/12/04 09:16:33;;;;;;;5.78;5.47;;;;;;;0.19;88.59;99174.25;6028542;23;20022;-71
2023/12/04 09:18:59;;;;;;;3.38;3.28;;;;;;;0.18;87.65;99132.16;6064187;23;20028;-71
2023/12/04 09:21:26;;;;;;;2.72;2.63;;;;;;;-0.64;87.45;98979.44;6066361;23;20030;-71
2023/12/04 09:23:53;;;;;;;3.33;3.15;;;;;;;-0.10;87.39;99072.97;6029606;23;20042;-72
2023/12/04 09:26:20;;;;;;;3.15;3.05;;;;;;;0.34;86.84;99158.25;6069312;23;20103;-72
2023/12/04 09:28:46;;;;;;;3.42;3.20;;;;;;;0.33;87.13;99142.81;6054958;23;20723;-71
2023/12/04 09:31:13;;;;;;;3.03;2.92;;;;;;;0.35;86.09;99133.28;6046247;23;20052;-71
2023/12/04 09:33:39;;;;;;;3.65;3.42;;;;;;;0.12;86.59;99096.25;6056391;23;20069;-71
2023/12/04 09:36:06;;;;;;;3.20;3.05;;;;;;;-0.10;87.00;99091.00;6060247;23;20882;-71
2023/12/04 09:38:34;;;;;;;4.10;3.90;;;;;;;0.29;85.97;99116.28;6056531;23;20395;-71
2023/12/04 09:41:02;;;;;;;3.20;3.10;;;;;;;0.28;86.14;99114.63;6029652;23;20497;-71
2023/12/04 09:43:31;;;;;;;3.58;3.38;;;;;;;0.30;85.92;99105.09;6060169;23;20010;-71
2023/12/04 09:45:59;;;;;;;3.72;3.38;;;;;;;0.09;85.37;99059.41;6071900;23;20132;-71
2023/12/04 09:48:25;;;;;;;3.20;2.95;;;;;;;0.53;84.59;99100.81;6051115;23;20505;-71
2023/12/04 09:50:53;;;;;;;3.53;3.22;;;;;;;0.51;84.23;99059.56;6067169;23;20103;-71
2023/12/04 09:53:22;;;;;;;3.30;3.15;;;;;;;0.38;83.81;99032.53;6028233;23;20018;-71
2023/12/04 09:55:49;;;;;;;3.53;3.33;;;;;;;-0.15;83.59;98951.09;6066359;23;20030;-72
2023/12/04 09:58:19;;;;;;;3.97;3.78;;;;;;;0.55;84.27;99063.72;6030576;23;20022;-72
2023/12/04 10:00:47;;;;;;;3.53;3.33;;;;;;;0.01;83.80;98953.94;6034148;23;20034;-71
2023/12/04 10:03:15;;;;;;;4.55;4.25;;;;;;;0.63;82.66;99024.72;6055014;23;20026;-72
2023/12/04 10:05:47;;;;;;;3.38;3.08;;;;;;;0.42;83.07;98984.22;6068149;23;20032;-71
2023/12/04 10:08:14;;;;;;;3.92;3.72;;;;;;;0.69;83.16;99058.03;6055034;23;20042;-71
2023/12/04 10:10:40;;;;;;;5.03;4.55;;;;;;;0.51;82.78;98997.63;6052732;23;20074;-71
2023/12/04 10:13:07;;;;;;;4.75;4.45;;;;;;;0.12;82.27;98900.22;6029683;23;20597;-71
2023/12/04 10:15:33;;;;;;;3.25;3.15;;;;;;;0.67;82.53;99010.78;6039052;23;20013;-73
2023/12/04 10:18:00;;;;;;;3.80;3.60;;;;;;;-0.27;82.94;98924.00;6064066;23;20057;-70
2023/12/04 10:20:28;;;;;;;5.07;4.68;;;;;;;0.35;83.61;99024.91;6030760;23;20050;-71
2023/12/04 10:22:59;;;;;;;3.20;3.03;;;;;;;0.86;83.39;99136.59;6065862;23;21982;-71
2023/12/04 10:25:31;;;;;;;3.63;3.38;;;;;;;0.84;83.39;99115.16;6034828;23;20093;-70
2023/12/04 10:28:12;;;;;;;8.02;4.18;;;;;;;0.89;83.35;99118.41;6071433;23;20053;-71
2023/12/04 10:30:39;;;;;;;5.65;5.15;;;;;;;-0.06;83.11;98947.31;6052125;23;20059;-71
2023/12/04 10:33:07;;;;;;;3.47;3.30;;;;;;;0.75;83.11;99082.78;6062246;23;20703;-71
2023/12/04 10:35:38;;;;;;;4.00;3.78;;;;;;;0.81;83.37;99121.28;6062289;23;20026;-71
2023/12/04 10:38:06;;;;;;;4.35;4.05;;;;;;;0.68;83.36;99061.53;6067030;23;20085;-71
2023/12/04 10:40:35;;;;;;;6.00;5.57;;;;;;;-0.25;83.83;98983.25;6059099;23;20025;-71
2023/12/04 10:43:26;;;;;;;3.80;3.50;;;;;;;0.47;84.04;99095.88;6029591;23;20046;-71
2023/12/04 10:45:54;;;;;;;2.65;2.55;;;;;;;0.52;84.69;99158.50;6088989;23;20030;-71
2023/12/04 10:48:21;;;;;;;4.40;3.97;;;;;;;0.60;84.52;99187.44;6065115;23;20026;-71
2023/12/04 10:50:49;;;;;;;3.35;3.15;;;;;;;-0.10;83.76;99034.28;6062516;23;20046;-71
2023/12/04 10:53:16;;;;;;;3.67;3.42;;;;;;;0.92;84.60;99222.47;6067399;23;20045;-71
2023/12/04 10:55:46;;;;;;;4.05;3.47;;;;;;;0.71;84.66;99159.50;6066772;23;20057;-71
2023/12/04 10:58:15;;;;;;;2.90;2.80;;;;;;;0.65;85.01;99188.13;6063998;23;20014;-72
2023/12/04 11:00:48;;;;;;;5.05;4.60;;;;;;;0.63;85.81;99231.25;6066698;23;20030;-71
2023/12/04 11:03:28;;;;;;;3.13;3.03;;;;;;;0.54;87.50;99247.03;6059581;23;20520;-72
2023/12/04 11:06:00;;;;;;;3.30;3.17;;;;;;;0.90;88.22;99352.53;6066121;23;20089;-71
2023/12/04 11:08:31;;;;;;;3.97;3.72;;;;;;;0.86;89.06;99385.34;6062644;23;21447;-71
2023/12/04 11:11:01;;;;;;;;;;;;;;;0.88;90.53;99401.69;6056910;23;20031;-71
2023/12/04 11:13:30;;;;;;;7.55;3.58;;;;;;;0.90;92.04;99481.66;6038230;23;19905;-71
2023/12/04 11:16:02;;;;;;;4.63;4.28;;;;;;;0.81;94.25;99526.72;6065568;23;20037;-71
2023/12/04 11:18:35;;;;;;;4.72;4.47;;;;;;;-0.76;95.96;99331.88;6062893;23;20026;-72
2023/12/04 11:21:08;;;;;;;4.35;4.05;;;;;;;0.77;99.11;99646.50;6059721;23;20038;-71
2023/12/04 11:23:35;;;;;;;5.03;3.58;;;;;;;0.72;100.00;99658.69;6064871;23;20026;-71
2023/12/04 11:26:05;;;;;;;3.38;3.22;;;;;;;0.46;100.00;99700.72;6063141;23;20081;-73
2023/12/04 11:28:33;;;;;;;6.32;5.93;;;;;;;0.51;100.00;99717.78;6063121;23;20097;-71